Aviation Digital Data Service (ADDS)

Output produced by METARs form (0259 UTC 25 January 2020)
found at http://www.aviationweather.gov/metar/data/
 
METAR text: KJAN 250254Z 14003KT 10SM BKN041 03/01 A3012 RMK AO2 SLP200 T00330011 51010
Conditions at: KJAN (JACKSON , MS, US) observed 0254 UTC 25 January 2020
Temperature: 3.3°C (38°F)
Dewpoint: 1.1°C (34°F) [RH = 85%]
Pressure (altimeter): 30.12 inches Hg (1020.1 mb)
[Sea-level pressure: 1020.0 mb]
Winds: from the SE (140 degrees) at 3 MPH (3 knots; 1.5 m/s)
Visibility: 10 or more miles (16+ km)
Ceiling: 4100 feet AGL
Clouds: broken clouds at 4100 feet AGL
Weather: no significant weather observed at this time

METAR text: KJAN 250154Z 00000KT 10SM FEW038 04/02 A3011 RMK AO2 SLP198 T00440017
Conditions at: KJAN (JACKSON , MS, US) observed 0154 UTC 25 January 2020
Temperature: 4.4°C (40°F)
Dewpoint: 1.7°C (35°F) [RH = 83%]
Pressure (altimeter): 30.11 inches Hg (1019.7 mb)
[Sea-level pressure: 1019.8 mb]
Winds: calm
Visibility: 10 or more miles (16+ km)
Ceiling: at least 12,000 feet AGL
Clouds: few clouds at 3800 feet AGL
Weather: no significant weather observed at this time

METAR text: KJAN 250054Z 00000KT 10SM SCT035 07/02 A3010 RMK AO2 SLP194 T00670017
Conditions at: KJAN (JACKSON , MS, US) observed 0054 UTC 25 January 2020
Temperature: 6.7°C (44°F)
Dewpoint: 1.7°C (35°F) [RH = 70%]
Pressure (altimeter): 30.10 inches Hg (1019.4 mb)
[Sea-level pressure: 1019.4 mb]
Winds: calm
Visibility: 10 or more miles (16+ km)
Ceiling: at least 12,000 feet AGL
Clouds: scattered clouds at 3500 feet AGL
Weather: no significant weather observed at this time

METAR text: KJAN 242354Z 31006KT 10SM OVC035 09/02 A3009 RMK AO2 SLP190 T00890017 10128 20089 53020
Conditions at: KJAN (JACKSON , MS, US) observed 2354 UTC 24 January 2020
Temperature: 8.9°C (48°F)
Dewpoint: 1.7°C (35°F) [RH = 61%]
Pressure (altimeter): 30.09 inches Hg (1019.0 mb)
[Sea-level pressure: 1019.0 mb]
Winds: from the NW (310 degrees) at 7 MPH (6 knots; 3.1 m/s)
Visibility: 10 or more miles (16+ km)
Ceiling: 3500 feet AGL
Clouds: overcast cloud deck at 3500 feet AGL
Weather: no significant weather observed at this time

METAR text: KJAN 242254Z 31010KT 10SM SCT033 09/02 A3007 RMK AO2 SLP182 T00940022
Conditions at: KJAN (JACKSON , MS, US) observed 2254 UTC 24 January 2020
Temperature: 9.4°C (49°F)
Dewpoint: 2.2°C (36°F) [RH = 61%]
Pressure (altimeter): 30.07 inches Hg (1018.4 mb)
[Sea-level pressure: 1018.2 mb]
Winds: from the NW (310 degrees) at 12 MPH (10 knots; 5.1 m/s)
Visibility: 10 or more miles (16+ km)
Ceiling: at least 12,000 feet AGL
Clouds: scattered clouds at 3300 feet AGL
Weather: no significant weather observed at this time

METAR text: KJAN 242154Z 27009KT 10SM BKN036 11/02 A3005 RMK AO2 SLP176 T01060022
Conditions at: KJAN (JACKSON , MS, US) observed 2154 UTC 24 January 2020
Temperature: 10.6°C (51°F)
Dewpoint: 2.2°C (36°F) [RH = 56%]
Pressure (altimeter): 30.05 inches Hg (1017.7 mb)
[Sea-level pressure: 1017.6 mb]
Winds: from the W (270 degrees) at 10 MPH (9 knots; 4.6 m/s)
Visibility: 10 or more miles (16+ km)
Ceiling: 3600 feet AGL
Clouds: broken clouds at 3600 feet AGL
Weather: no significant weather observed at this time

METAR text: KJAN 242054Z 28011KT 10SM BKN036 11/02 A3003 RMK AO2 SLP170 T01060022 55003
Conditions at: KJAN (JACKSON , MS, US) observed 2054 UTC 24 January 2020
Temperature: 10.6°C (51°F)
Dewpoint: 2.2°C (36°F) [RH = 56%]
Pressure (altimeter): 30.03 inches Hg (1017.0 mb)
[Sea-level pressure: 1017.0 mb]
Winds: from the W (280 degrees) at 13 MPH (11 knots; 5.7 m/s)
Visibility: 10 or more miles (16+ km)
Ceiling: 3600 feet AGL
Clouds: broken clouds at 3600 feet AGL
Weather: no significant weather observed at this time

METAR text: KJAN 241954Z 25013G22KT 10SM SCT033 12/03 A3002 RMK AO2 SLP166 T01220033
Conditions at: KJAN (JACKSON , MS, US) observed 1954 UTC 24 January 2020
Temperature: 12.2°C (54°F)
Dewpoint: 3.3°C (38°F) [RH = 54%]
Pressure (altimeter): 30.02 inches Hg (1016.7 mb)
[Sea-level pressure: 1016.6 mb]
Winds: from the WSW (250 degrees) at 15 MPH (13 knots; 6.7 m/s)
gusting to 25 MPH (22 knots; 11.3 m/s)
Visibility: 10 or more miles (16+ km)
Ceiling: at least 12,000 feet AGL
Clouds: scattered clouds at 3300 feet AGL
Weather: no significant weather observed at this time

METAR text: KJAN 241854Z 29011G17KT 10SM FEW032 11/03 A3002 RMK AO2 SLP166 T01060028
Conditions at: KJAN (JACKSON , MS, US) observed 1854 UTC 24 January 2020
Temperature: 10.6°C (51°F)
Dewpoint: 2.8°C (37°F) [RH = 58%]
Pressure (altimeter): 30.02 inches Hg (1016.7 mb)
[Sea-level pressure: 1016.6 mb]
Winds: from the WNW (290 degrees) at 13 MPH (11 knots; 5.7 m/s)
gusting to 20 MPH (17 knots; 8.7 m/s)
Visibility: 10 or more miles (16+ km)
Ceiling: at least 12,000 feet AGL
Clouds: few clouds at 3200 feet AGL
Weather: no significant weather observed at this time

METAR text: KJAN 241754Z 26009G16KT 10SM SCT029 12/05 A3004 RMK AO2 SLP172 T01220050 10122 20039 58007
Conditions at: KJAN (JACKSON , MS, US) observed 1754 UTC 24 January 2020
Temperature: 12.2°C (54°F)
Dewpoint: 5.0°C (41°F) [RH = 61%]
Pressure (altimeter): 30.04 inches Hg (1017.4 mb)
[Sea-level pressure: 1017.2 mb]
Winds: from the W (260 degrees) at 10 MPH (9 knots; 4.6 m/s)
gusting to 18 MPH (16 knots; 8.2 m/s)
Visibility: 10 or more miles (16+ km)
Ceiling: at least 12,000 feet AGL
Clouds: scattered clouds at 2900 feet AGL
Weather: no significant weather observed at this time

METAR text: KJAN 241728Z 26010KT 10SM SCT027 10/04 A3006 RMK AO2 T01000039
Conditions at: KJAN (JACKSON , MS, US) observed 1728 UTC 24 January 2020
Temperature: 10.0°C (50°F)
Dewpoint: 3.9°C (39°F) [RH = 66%]
Pressure (altimeter): 30.06 inches Hg (1018.0 mb)
Winds: from the W (260 degrees) at 12 MPH (10 knots; 5.1 m/s)
Visibility: 10 or more miles (16+ km)
Ceiling: at least 12,000 feet AGL
Clouds: scattered clouds at 2700 feet AGL
Weather: no significant weather observed at this time

METAR text: KJAN 241720Z 27009KT 10SM BKN027 10/04 A3006 RMK AO2 T01000039
Conditions at: KJAN (JACKSON , MS, US) observed 1720 UTC 24 January 2020
Temperature: 10.0°C (50°F)
Dewpoint: 3.9°C (39°F) [RH = 66%]
Pressure (altimeter): 30.06 inches Hg (1018.0 mb)
Winds: from the W (270 degrees) at 10 MPH (9 knots; 4.6 m/s)
Visibility: 10 or more miles (16+ km)
Ceiling: 2700 feet AGL
Clouds: broken clouds at 2700 feet AGL
Weather: no significant weather observed at this time

METAR text: KJAN 241654Z 28012G19KT 10SM SCT025 11/04 A3007 RMK AO2 SLP181 T01060044
Conditions at: KJAN (JACKSON , MS, US) observed 1654 UTC 24 January 2020
Temperature: 10.6°C (51°F)
Dewpoint: 4.4°C (40°F) [RH = 65%]
Pressure (altimeter): 30.07 inches Hg (1018.4 mb)
[Sea-level pressure: 1018.1 mb]
Winds: from the W (280 degrees) at 14 MPH (12 knots; 6.2 m/s)
gusting to 22 MPH (19 knots; 9.8 m/s)
Visibility: 10 or more miles (16+ km)
Ceiling: at least 12,000 feet AGL
Clouds: scattered clouds at 2500 feet AGL
Weather: no significant weather observed at this time

METAR text: KJAN 241554Z 23009KT 10SM FEW013 09/06 A3007 RMK AO2 SLP180 T00940056
Conditions at: KJAN (JACKSON , MS, US) observed 1554 UTC 24 January 2020
Temperature: 9.4°C (49°F)
Dewpoint: 5.6°C (42°F) [RH = 77%]
Pressure (altimeter): 30.07 inches Hg (1018.4 mb)
[Sea-level pressure: 1018.0 mb]
Winds: from the SW (230 degrees) at 10 MPH (9 knots; 4.6 m/s)
Visibility: 10 or more miles (16+ km)
Ceiling: at least 12,000 feet AGL
Clouds: few clouds at 1300 feet AGL
Weather: no significant weather observed at this time

METAR text: KJAN 241507Z 22006KT 10SM SCT005 07/05 A3006 RMK AO2 T00720050
Conditions at: KJAN (JACKSON , MS, US) observed 1507 UTC 24 January 2020
Temperature: 7.2°C (45°F)
Dewpoint: 5.0°C (41°F) [RH = 86%]
Pressure (altimeter): 30.06 inches Hg (1018.0 mb)
Winds: from the SW (220 degrees) at 7 MPH (6 knots; 3.1 m/s)
Visibility: 10 or more miles (16+ km)
Ceiling: at least 12,000 feet AGL
Clouds: scattered clouds at 500 feet AGL
Weather: no significant weather observed at this time

METAR text: KJAN 241454Z 20008KT 10SM OVC004 06/05 A3006 RMK AO2 SLP179 T00610050 51018
Conditions at: KJAN (JACKSON , MS, US) observed 1454 UTC 24 January 2020
Temperature: 6.1°C (43°F)
Dewpoint: 5.0°C (41°F) [RH = 93%]
Pressure (altimeter): 30.06 inches Hg (1018.0 mb)
[Sea-level pressure: 1017.9 mb]
Winds: from the SSW (200 degrees) at 9 MPH (8 knots; 4.1 m/s)
Visibility: 10 or more miles (16+ km)
Ceiling: 400 feet AGL
Clouds: overcast cloud deck at 400 feet AGL
Weather: no significant weather observed at this time

METAR text: KJAN 241354Z 21006KT 7SM OVC003 06/04 A3004 RMK AO2 SLP172 T00560039
Conditions at: KJAN (JACKSON , MS, US) observed 1354 UTC 24 January 2020
Temperature: 5.6°C (42°F)
Dewpoint: 3.9°C (39°F) [RH = 89%]
Pressure (altimeter): 30.04 inches Hg (1017.4 mb)
[Sea-level pressure: 1017.2 mb]
Winds: from the SSW (210 degrees) at 7 MPH (6 knots; 3.1 m/s)
Visibility: 7 miles (11 km)
Ceiling: 300 feet AGL
Clouds: overcast cloud deck at 300 feet AGL
Weather: no significant weather observed at this time

METAR text: KJAN 241254Z 22008KT 4SM BR OVC002 05/04 A3003 RMK AO2 SLP169 T00500039
Conditions at: KJAN (JACKSON , MS, US) observed 1254 UTC 24 January 2020
Temperature: 5.0°C (41°F)
Dewpoint: 3.9°C (39°F) [RH = 93%]
Pressure (altimeter): 30.03 inches Hg (1017.0 mb)
[Sea-level pressure: 1016.9 mb]
Winds: from the SW (220 degrees) at 9 MPH (8 knots; 4.1 m/s)
Visibility: 4 miles ( 6 km)
Ceiling: 200 feet AGL
Clouds: overcast cloud deck at 200 feet AGL
Weather: BR  (mist)

METAR text: KJAN 241201Z 22006KT 9SM OVC003 04/03 A3001 RMK AO2 T00440033
Conditions at: KJAN (JACKSON , MS, US) observed 1201 UTC 24 January 2020
Temperature: 4.4°C (40°F)
Dewpoint: 3.3°C (38°F) [RH = 93%]
Pressure (altimeter): 30.01 inches Hg (1016.3 mb)
Winds: from the SW (220 degrees) at 7 MPH (6 knots; 3.1 m/s)
Visibility: 9 miles (14 km)
Ceiling: 300 feet AGL
Clouds: overcast cloud deck at 300 feet AGL
Weather: no significant weather observed at this time

METAR text: KJAN 241154Z 23005KT 8SM BKN005 04/03 A3001 RMK AO2 SLP162 70059 T00390028 10083 20028 51004
Conditions at: KJAN (JACKSON , MS, US) observed 1154 UTC 24 January 2020
Temperature: 3.9°C (39°F)
Dewpoint: 2.8°C (37°F) [RH = 93%]
Pressure (altimeter): 30.01 inches Hg (1016.3 mb)
[Sea-level pressure: 1016.2 mb]
Winds: from the SW (230 degrees) at 6 MPH (5 knots; 2.6 m/s)
Visibility: 8 miles (13 km)
Ceiling: 500 feet AGL
Clouds: broken clouds at 500 feet AGL
Weather: no significant weather observed at this time

METAR text: KJAN 241152Z 23006KT 7SM BKN005 04/03 A3001 RMK AO2
Conditions at: KJAN (JACKSON , MS, US) observed 1152 UTC 24 January 2020
Temperature: 4.0°C (39°F)
Dewpoint: 3.0°C (37°F) [RH = 93%]
Pressure (altimeter): 30.01 inches Hg (1016.3 mb)
Winds: from the SW (230 degrees) at 7 MPH (6 knots; 3.1 m/s)
Visibility: 7 miles (11 km)
Ceiling: 500 feet AGL
Clouds: broken clouds at 500 feet AGL
Weather: no significant weather observed at this time

METAR text: KJAN 241141Z 21004KT 7SM SCT005 03/02 A3001 RMK AO2 T00330022
Conditions at: KJAN (JACKSON , MS, US) observed 1141 UTC 24 January 2020
Temperature: 3.3°C (38°F)
Dewpoint: 2.2°C (36°F) [RH = 92%]
Pressure (altimeter): 30.01 inches Hg (1016.3 mb)
Winds: from the SSW (210 degrees) at 5 MPH (4 knots; 2.1 m/s)
Visibility: 7 miles (11 km)
Ceiling: at least 12,000 feet AGL
Clouds: scattered clouds at 500 feet AGL
Weather: no significant weather observed at this time

METAR text: KJAN 241129Z 20004KT 7SM CLR 03/03 A3000 RMK AO2 T00330028
Conditions at: KJAN (JACKSON , MS, US) observed 1129 UTC 24 January 2020
Temperature: 3.3°C (38°F)
Dewpoint: 2.8°C (37°F) [RH = 97%]
Pressure (altimeter): 30.00 inches Hg (1016.0 mb)
Winds: from the SSW (200 degrees) at 5 MPH (4 knots; 2.1 m/s)
Visibility: 7 miles (11 km)
Ceiling: at least 12,000 feet AGL
Clouds: sky clear below 12,000 feet AGL
Weather: no significant weather observed at this time

METAR text: KJAN 241122Z 19004KT 2 1/2SM R16L/3500VP6000FT BR CLR 03/02 A3000 RMK AO2 T00330022
Conditions at: KJAN (JACKSON , MS, US) observed 1122 UTC 24 January 2020
Temperature: 3.3°C (38°F)
Dewpoint: 2.2°C (36°F) [RH = 92%]
Pressure (altimeter): 30.00 inches Hg (1016.0 mb)
Winds: from the S (190 degrees) at 5 MPH (4 knots; 2.1 m/s)
Visibility: 2.50 miles (4.02 km)
Ceiling: at least 12,000 feet AGL
Clouds: sky clear below 12,000 feet AGL
Weather: BR  (mist)

METAR text: KJAN 241054Z 22003KT 1/2SM R16L/2600V4000FT FG CLR 03/02 A3000 RMK AO2 SLP159 T00330022
Conditions at: KJAN (JACKSON , MS, US) observed 1054 UTC 24 January 2020
Temperature: 3.3°C (38°F)
Dewpoint: 2.2°C (36°F) [RH = 92%]
Pressure (altimeter): 30.00 inches Hg (1016.0 mb)
[Sea-level pressure: 1015.9 mb]
Winds: from the SW (220 degrees) at 3 MPH (3 knots; 1.5 m/s)
Visibility: 0.50 miles (0.80 km)
Ceiling: at least 12,000 feet AGL
Clouds: sky clear below 12,000 feet AGL
Weather: FG  (fog)

METAR text: KJAN 241032Z 00000KT 3/4SM R16L/P6000FT BR CLR 04/03 A2999 RMK AO2 T00440028
Conditions at: KJAN (JACKSON , MS, US) observed 1032 UTC 24 January 2020
Temperature: 4.4°C (40°F)
Dewpoint: 2.8°C (37°F) [RH = 89%]
Pressure (altimeter): 29.99 inches Hg (1015.7 mb)
Winds: calm
Visibility: 0.75 miles (1.21 km)
Ceiling: at least 12,000 feet AGL
Clouds: sky clear below 12,000 feet AGL
Weather: BR  (mist)

METAR text: KJAN 241017Z 00000KT 2SM BR CLR 04/03 A3000 RMK AO2 T00390028
Conditions at: KJAN (JACKSON , MS, US) observed 1017 UTC 24 January 2020
Temperature: 3.9°C (39°F)
Dewpoint: 2.8°C (37°F) [RH = 93%]
Pressure (altimeter): 30.00 inches Hg (1016.0 mb)
Winds: calm
Visibility: 2.00 miles (3.22 km)
Ceiling: at least 12,000 feet AGL
Clouds: sky clear below 12,000 feet AGL
Weather: BR  (mist)

METAR text: KJAN 240954Z 19003KT 9SM CLR 04/03 A3000 RMK AO2 SLP157 T00440028
Conditions at: KJAN (JACKSON , MS, US) observed 0954 UTC 24 January 2020
Temperature: 4.4°C (40°F)
Dewpoint: 2.8°C (37°F) [RH = 89%]
Pressure (altimeter): 30.00 inches Hg (1016.0 mb)
[Sea-level pressure: 1015.7 mb]
Winds: from the S (190 degrees) at 3 MPH (3 knots; 1.5 m/s)
Visibility: 9 miles (14 km)
Ceiling: at least 12,000 feet AGL
Clouds: sky clear below 12,000 feet AGL
Weather: no significant weather observed at this time

METAR text: KJAN 240854Z 00000KT 10SM CLR 05/04 A3001 RMK AO2 SLP160 T00500039 53003
Conditions at: KJAN (JACKSON , MS, US) observed 0854 UTC 24 January 2020
Temperature: 5.0°C (41°F)
Dewpoint: 3.9°C (39°F) [RH = 93%]
Pressure (altimeter): 30.01 inches Hg (1016.3 mb)
[Sea-level pressure: 1016.0 mb]
Winds: calm
Visibility: 10 or more miles (16+ km)
Ceiling: at least 12,000 feet AGL
Clouds: sky clear below 12,000 feet AGL
Weather: no significant weather observed at this time

METAR text: KJAN 240826Z 00000KT 10SM SCT017 06/04 A3000 RMK AO2 T00610044
Conditions at: KJAN (JACKSON , MS, US) observed 0826 UTC 24 January 2020
Temperature: 6.1°C (43°F)
Dewpoint: 4.4°C (40°F) [RH = 89%]
Pressure (altimeter): 30.00 inches Hg (1016.0 mb)
Winds: calm
Visibility: 10 or more miles (16+ km)
Ceiling: at least 12,000 feet AGL
Clouds: scattered clouds at 1700 feet AGL
Weather: no significant weather observed at this time

METAR text: KJAN 240809Z VRB04KT 9SM SCT007 OVC016 07/05 A3000 RMK AO2 T00720050
Conditions at: KJAN (JACKSON , MS, US) observed 0809 UTC 24 January 2020
Temperature: 7.2°C (45°F)
Dewpoint: 5.0°C (41°F) [RH = 86%]
Pressure (altimeter): 30.00 inches Hg (1016.0 mb)
Winds: variable direction winds at 5 MPH (4 knots; 2.1 m/s)
Visibility: 9 miles (14 km)
Ceiling: 1600 feet AGL
Clouds: scattered clouds at 700 feet AGL
overcast cloud deck at 1600 feet AGL
Weather: no significant weather observed at this time

METAR text: KJAN 240754Z 29007KT 6SM BR BKN007 OVC014 07/06 A3000 RMK AO2 SLP158 T00720056
Conditions at: KJAN (JACKSON , MS, US) observed 0754 UTC 24 January 2020
Temperature: 7.2°C (45°F)
Dewpoint: 5.6°C (42°F) [RH = 90%]
Pressure (altimeter): 30.00 inches Hg (1016.0 mb)
[Sea-level pressure: 1015.8 mb]
Winds: from the WNW (290 degrees) at 8 MPH (7 knots; 3.6 m/s)
Visibility: 6 miles (10 km)
Ceiling: 700 feet AGL
Clouds: broken clouds at 700 feet AGL
overcast cloud deck at 1400 feet AGL
Weather: BR  (mist)

METAR text: KJAN 240723Z 27007KT 3SM BR OVC007 07/06 A3000 RMK AO2 CIG 004V012 T00720056
Conditions at: KJAN (JACKSON , MS, US) observed 0723 UTC 24 January 2020
Temperature: 7.2°C (45°F)
Dewpoint: 5.6°C (42°F) [RH = 90%]
Pressure (altimeter): 30.00 inches Hg (1016.0 mb)
Winds: from the W (270 degrees) at 8 MPH (7 knots; 3.6 m/s)
Visibility: 3 miles ( 5 km)
Ceiling: 700 feet AGL
Clouds: overcast cloud deck at 700 feet AGL
Weather: BR  (mist)

METAR text: KJAN 240705Z 29007KT 2 1/2SM BR BKN007 OVC011 08/06 A3000 RMK AO2 CIG 005V009 T00780056
Conditions at: KJAN (JACKSON , MS, US) observed 0705 UTC 24 January 2020
Temperature: 7.8°C (46°F)
Dewpoint: 5.6°C (42°F) [RH = 86%]
Pressure (altimeter): 30.00 inches Hg (1016.0 mb)
Winds: from the WNW (290 degrees) at 8 MPH (7 knots; 3.6 m/s)
Visibility: 2.50 miles (4.02 km)
Ceiling: 700 feet AGL
Clouds: broken clouds at 700 feet AGL
overcast cloud deck at 1100 feet AGL
Weather: BR  (mist)

METAR text: KJAN 240654Z 27009KT 6SM BR OVC009 08/06 A3000 RMK AO2 CIG 004V014 SLP158 T00780056
Conditions at: KJAN (JACKSON , MS, US) observed 0654 UTC 24 January 2020
Temperature: 7.8°C (46°F)
Dewpoint: 5.6°C (42°F) [RH = 86%]
Pressure (altimeter): 30.00 inches Hg (1016.0 mb)
[Sea-level pressure: 1015.8 mb]
Winds: from the W (270 degrees) at 10 MPH (9 knots; 4.6 m/s)
Visibility: 6 miles (10 km)
Ceiling: 900 feet AGL
Clouds: overcast cloud deck at 900 feet AGL
Weather: BR  (mist)

METAR text: KJAN 240554Z 30009KT 10SM BKN005 OVC010 08/06 A3000 RMK AO2 CIG 004V009 SLP157 60003 T00830061 10111 20083 401390044 50004
Conditions at: KJAN (JACKSON , MS, US) observed 0554 UTC 24 January 2020
Temperature: 8.3°C (47°F)
Dewpoint: 6.1°C (43°F) [RH = 86%]
Pressure (altimeter): 30.00 inches Hg (1016.0 mb)
[Sea-level pressure: 1015.7 mb]
Winds: from the WNW (300 degrees) at 10 MPH (9 knots; 4.6 m/s)
Visibility: 10 or more miles (16+ km)
Ceiling: 500 feet AGL
Clouds: broken clouds at 500 feet AGL
overcast cloud deck at 1000 feet AGL
Weather: no significant weather observed at this time

METAR text: KJAN 240454Z 31009G17KT 10SM OVC007 08/06 A3000 RMK AO2 SLP159 T00830061
Conditions at: KJAN (JACKSON , MS, US) observed 0454 UTC 24 January 2020
Temperature: 8.3°C (47°F)
Dewpoint: 6.1°C (43°F) [RH = 86%]
Pressure (altimeter): 30.00 inches Hg (1016.0 mb)
[Sea-level pressure: 1015.9 mb]
Winds: from the NW (310 degrees) at 10 MPH (9 knots; 4.6 m/s)
gusting to 20 MPH (17 knots; 8.7 m/s)
Visibility: 10 or more miles (16+ km)
Ceiling: 700 feet AGL
Clouds: overcast cloud deck at 700 feet AGL
Weather: no significant weather observed at this time

METAR text: KJAN 240420Z 30007G15KT 10SM OVC006 09/07 A3000 RMK AO2 CIG 005V011 T00890067
Conditions at: KJAN (JACKSON , MS, US) observed 0420 UTC 24 January 2020
Temperature: 8.9°C (48°F)
Dewpoint: 6.7°C (44°F) [RH = 86%]
Pressure (altimeter): 30.00 inches Hg (1016.0 mb)
Winds: from the WNW (300 degrees) at 8 MPH (7 knots; 3.6 m/s)
gusting to 17 MPH (15 knots; 7.7 m/s)
Visibility: 10 or more miles (16+ km)
Ceiling: 600 feet AGL
Clouds: overcast cloud deck at 600 feet AGL
Weather: no significant weather observed at this time

METAR text: KJAN 240354Z 32006KT 10SM BKN008 OVC055 09/07 A2999 RMK AO2 SLP153 T00890067
Conditions at: KJAN (JACKSON , MS, US) observed 0354 UTC 24 January 2020
Temperature: 8.9°C (48°F)
Dewpoint: 6.7°C (44°F) [RH = 86%]
Pressure (altimeter): 29.99 inches Hg (1015.7 mb)
[Sea-level pressure: 1015.3 mb]
Winds: from the NW (320 degrees) at 7 MPH (6 knots; 3.1 m/s)
Visibility: 10 or more miles (16+ km)
Ceiling: 800 feet AGL
Clouds: broken clouds at 800 feet AGL
overcast cloud deck at 5500 feet AGL
Weather: no significant weather observed at this time

METAR text: KJAN 240254Z 30005KT 10SM OVC007 10/08 A2999 RMK AO2 SLP154 60003 T01000078 51022
Conditions at: KJAN (JACKSON , MS, US) observed 0254 UTC 24 January 2020
Temperature: 10.0°C (50°F)
Dewpoint: 7.8°C (46°F) [RH = 86%]
Pressure (altimeter): 29.99 inches Hg (1015.7 mb)
[Sea-level pressure: 1015.4 mb]
Winds: from the WNW (300 degrees) at 6 MPH (5 knots; 2.6 m/s)
Visibility: 10 or more miles (16+ km)
Ceiling: 700 feet AGL
Clouds: overcast cloud deck at 700 feet AGL
Weather: no significant weather observed at this time

METAR text: KJAN 240231Z 30006KT 10SM OVC007 10/08 A2998 RMK AO2 T01000078
Conditions at: KJAN (JACKSON , MS, US) observed 0231 UTC 24 January 2020
Temperature: 10.0°C (50°F)
Dewpoint: 7.8°C (46°F) [RH = 86%]
Pressure (altimeter): 29.98 inches Hg (1015.3 mb)
Winds: from the WNW (300 degrees) at 7 MPH (6 knots; 3.1 m/s)
Visibility: 10 or more miles (16+ km)
Ceiling: 700 feet AGL
Clouds: overcast cloud deck at 700 feet AGL
Weather: no significant weather observed at this time

METAR text: KJAN 240154Z 29005KT 10SM OVC009 11/09 A2997 RMK AO2 RAB20E31 CIG 008V013 SLP149 P0000 T01060089
Conditions at: KJAN (JACKSON , MS, US) observed 0154 UTC 24 January 2020
Temperature: 10.6°C (51°F)
Dewpoint: 8.9°C (48°F) [RH = 89%]
Pressure (altimeter): 29.97 inches Hg (1015.0 mb)
[Sea-level pressure: 1014.9 mb]
Winds: from the WNW (290 degrees) at 6 MPH (5 knots; 2.6 m/s)
Visibility: 10 or more miles (16+ km)
Ceiling: 900 feet AGL
Clouds: overcast cloud deck at 900 feet AGL
Weather: no significant weather observed at this time

METAR text: KJAN 240115Z 00000KT 5SM BR FEW004 OVC012 11/09 A2995 RMK AO2 T01060094
Conditions at: KJAN (JACKSON , MS, US) observed 0115 UTC 24 January 2020
Temperature: 10.6°C (51°F)
Dewpoint: 9.4°C (49°F) [RH = 92%]
Pressure (altimeter): 29.95 inches Hg (1014.3 mb)
Winds: calm
Visibility: 5 miles ( 8 km)
Ceiling: 1200 feet AGL
Clouds: few clouds at 400 feet AGL
overcast cloud deck at 1200 feet AGL
Weather: BR  (mist)

METAR text: KJAN 240054Z 35003KT 4SM BR BKN003 OVC010 11/09 A2994 RMK AO2 RAB2358E42 CIG 002V008 SLP138 P0003 T01060094
Conditions at: KJAN (JACKSON , MS, US) observed 0054 UTC 24 January 2020
Temperature: 10.6°C (51°F)
Dewpoint: 9.4°C (49°F) [RH = 92%]
Pressure (altimeter): 29.94 inches Hg (1014.0 mb)
[Sea-level pressure: 1013.8 mb]
Winds: from the N (350 degrees) at 3 MPH (3 knots; 1.5 m/s)
Visibility: 4 miles ( 6 km)
Ceiling: 300 feet AGL
Clouds: broken clouds at 300 feet AGL
overcast cloud deck at 1000 feet AGL
Weather: BR  (mist)

METAR text: KJAN 232354Z 04003KT 9SM OVC004 11/10 A2992 RMK AO2 RAE17B36E50 SLP131 P0001 60044 T01110100 10139 20111 53010
Conditions at: KJAN (JACKSON , MS, US) observed 2354 UTC 23 January 2020
Temperature: 11.1°C (52°F)
Dewpoint: 10.0°C (50°F) [RH = 93%]
Pressure (altimeter): 29.92 inches Hg (1013.3 mb)
[Sea-level pressure: 1013.1 mb]
Winds: from the NE (40 degrees) at 3 MPH (3 knots; 1.5 m/s)
Visibility: 9 miles (14 km)
Ceiling: 400 feet AGL
Clouds: overcast cloud deck at 400 feet AGL
Weather: no significant weather observed at this time

METAR text: KJAN 232337Z 01003KT 9SM -RA OVC004 12/10 A2992 RMK AO2 RAE17B36 P0001 T01170100
Conditions at: KJAN (JACKSON , MS, US) observed 2337 UTC 23 January 2020
Temperature: 11.7°C (53°F)
Dewpoint: 10.0°C (50°F) [RH = 89%]
Pressure (altimeter): 29.92 inches Hg (1013.3 mb)
Winds: from the N (10 degrees) at 3 MPH (3 knots; 1.5 m/s)
Visibility: 9 miles (14 km)
Ceiling: 400 feet AGL
Clouds: overcast cloud deck at 400 feet AGL
Weather: -RA  (light rain)

METAR text: KJAN 232314Z 00000KT 4SM -RA BR SCT005 BKN008 OVC017 12/11 A2991 RMK AO2 CIG 006V011 P0001 T01170106
Conditions at: KJAN (JACKSON , MS, US) observed 2314 UTC 23 January 2020
Temperature: 11.7°C (53°F)
Dewpoint: 10.6°C (51°F) [RH = 93%]
Pressure (altimeter): 29.91 inches Hg (1013.0 mb)
Winds: calm
Visibility: 4 miles ( 6 km)
Ceiling: 800 feet AGL
Clouds: scattered clouds at 500 feet AGL
broken clouds at 800 feet AGL
overcast cloud deck at 1700 feet AGL
Weather: -RA BR  (light rain, mist)

METAR text: KJAN 232254Z 35003KT 2 1/2SM -RA BR OVC005 12/11 A2991 RMK AO2 CIG 003V008 SLP126 P0041 T01220106
Conditions at: KJAN (JACKSON , MS, US) observed 2254 UTC 23 January 2020
Temperature: 12.2°C (54°F)
Dewpoint: 10.6°C (51°F) [RH = 90%]
Pressure (altimeter): 29.91 inches Hg (1013.0 mb)
[Sea-level pressure: 1012.6 mb]
Winds: from the N (350 degrees) at 3 MPH (3 knots; 1.5 m/s)
Visibility: 2.50 miles (4.02 km)
Ceiling: 500 feet AGL
Clouds: overcast cloud deck at 500 feet AGL
Weather: -RA BR  (light rain, mist)

METAR text: KJAN 232249Z 00000KT 2 1/2SM -RA BR BKN005 OVC008 12/11 A2990 RMK AO2 P0040
Conditions at: KJAN (JACKSON , MS, US) observed 2249 UTC 23 January 2020
Temperature: 12.0°C (54°F)
Dewpoint: 11.0°C (52°F) [RH = 94%]
Pressure (altimeter): 29.90 inches Hg (1012.6 mb)
Winds: calm
Visibility: 2.50 miles (4.02 km)
Ceiling: 500 feet AGL
Clouds: broken clouds at 500 feet AGL
overcast cloud deck at 800 feet AGL
Weather: -RA BR  (light rain, mist)

METAR text: KJAN 232235Z 36003KT 2SM RA BR BKN004 BKN016 OVC025 12/11 A2990 RMK AO2 P0038 T01220106
Conditions at: KJAN (JACKSON , MS, US) observed 2235 UTC 23 January 2020
Temperature: 12.2°C (54°F)
Dewpoint: 10.6°C (51°F) [RH = 90%]
Pressure (altimeter): 29.90 inches Hg (1012.6 mb)
Winds: from the N (360 degrees) at 3 MPH (3 knots; 1.5 m/s)
Visibility: 2.00 miles (3.22 km)
Ceiling: 400 feet AGL
Clouds: broken clouds at 400 feet AGL
broken clouds at 1600 feet AGL
overcast cloud deck at 2500 feet AGL
Weather: RA BR  (moderate rain, mist)

METAR text: KJAN 232231Z 33004KT 1 1/2SM RA BR BKN006 BKN016 OVC025 12/11 A2990 RMK AO2 P0036 T01220111
Conditions at: KJAN (JACKSON , MS, US) observed 2231 UTC 23 January 2020
Temperature: 12.2°C (54°F)
Dewpoint: 11.1°C (52°F) [RH = 93%]
Pressure (altimeter): 29.90 inches Hg (1012.6 mb)
Winds: from the NNW (330 degrees) at 5 MPH (4 knots; 2.1 m/s)
Visibility: 1.50 miles (2.41 km)
Ceiling: 600 feet AGL
Clouds: broken clouds at 600 feet AGL
broken clouds at 1600 feet AGL
overcast cloud deck at 2500 feet AGL
Weather: RA BR  (moderate rain, mist)

METAR text: KJAN 232224Z 00000KT 1SM R16L/5500VP6000FT RA BR SCT006 BKN010 OVC025 12/11 A2990 RMK AO2 P0034 T01220111
Conditions at: KJAN (JACKSON , MS, US) observed 2224 UTC 23 January 2020
Temperature: 12.2°C (54°F)
Dewpoint: 11.1°C (52°F) [RH = 93%]
Pressure (altimeter): 29.90 inches Hg (1012.6 mb)
Winds: calm
Visibility: 1.00 miles (1.61 km)
Ceiling: 1000 feet AGL
Clouds: scattered clouds at 600 feet AGL
broken clouds at 1000 feet AGL
overcast cloud deck at 2500 feet AGL
Weather: RA BR  (moderate rain, mist)

METAR text: KJAN 232215Z 34005KT 1/2SM R16L/4500VP6000FT +RA FG SCT006 BKN016 OVC033 12/11 A2989 RMK AO2 P0025 T01220111
Conditions at: KJAN (JACKSON , MS, US) observed 2215 UTC 23 January 2020
Temperature: 12.2°C (54°F)
Dewpoint: 11.1°C (52°F) [RH = 93%]
Pressure (altimeter): 29.89 inches Hg (1012.3 mb)
Winds: from the NNW (340 degrees) at 6 MPH (5 knots; 2.6 m/s)
Visibility: 0.50 miles (0.80 km)
Ceiling: 1600 feet AGL
Clouds: scattered clouds at 600 feet AGL
broken clouds at 1600 feet AGL
overcast cloud deck at 3300 feet AGL
Weather: +RA FG  (heavy rain, fog)

METAR text: KJAN 232208Z 32008KT 3/4SM R16L/4500VP6000FT +RA BR SCT006 BKN010 OVC016 12/11 A2989 RMK AO2 P0011 T01220106
Conditions at: KJAN (JACKSON , MS, US) observed 2208 UTC 23 January 2020
Temperature: 12.2°C (54°F)
Dewpoint: 10.6°C (51°F) [RH = 90%]
Pressure (altimeter): 29.89 inches Hg (1012.3 mb)
Winds: from the NW (320 degrees) at 9 MPH (8 knots; 4.1 m/s)
Visibility: 0.75 miles (1.21 km)
Ceiling: 1000 feet AGL
Clouds: scattered clouds at 600 feet AGL
broken clouds at 1000 feet AGL
overcast cloud deck at 1600 feet AGL
Weather: +RA BR  (heavy rain, mist)

METAR text: KJAN 232205Z 31009KT 1 1/4SM R16L/6000VP6000FT RA BR BKN008 OVC016 12/11 A2990 RMK AO2 CIG 004V012 P0006 T01220106
Conditions at: KJAN (JACKSON , MS, US) observed 2205 UTC 23 January 2020
Temperature: 12.2°C (54°F)
Dewpoint: 10.6°C (51°F) [RH = 90%]
Pressure (altimeter): 29.90 inches Hg (1012.6 mb)
Winds: from the NW (310 degrees) at 10 MPH (9 knots; 4.6 m/s)
Visibility: 1.25 miles (2.01 km)
Ceiling: 800 feet AGL
Clouds: broken clouds at 800 feet AGL
overcast cloud deck at 1600 feet AGL
Weather: RA BR  (moderate rain, mist)

METAR text: KJAN 232157Z 31008KT 2 1/2SM RA BR SCT005 OVC011 13/11 A2989 RMK AO2 P0001 T01280106
Conditions at: KJAN (JACKSON , MS, US) observed 2157 UTC 23 January 2020
Temperature: 12.8°C (55°F)
Dewpoint: 10.6°C (51°F) [RH = 86%]
Pressure (altimeter): 29.89 inches Hg (1012.3 mb)
Winds: from the NW (310 degrees) at 9 MPH (8 knots; 4.1 m/s)
Visibility: 2.50 miles (4.02 km)
Ceiling: 1100 feet AGL
Clouds: scattered clouds at 500 feet AGL
overcast cloud deck at 1100 feet AGL
Weather: RA BR  (moderate rain, mist)

METAR text: KJAN 232154Z 32005KT 6SM -RA BR BKN008 OVC013 13/11 A2989 RMK AO2 RAB48 CIG 004V011 SLP121 P0000 T01280106
Conditions at: KJAN (JACKSON , MS, US) observed 2154 UTC 23 January 2020
Temperature: 12.8°C (55°F)
Dewpoint: 10.6°C (51°F) [RH = 86%]
Pressure (altimeter): 29.89 inches Hg (1012.3 mb)
[Sea-level pressure: 1012.1 mb]
Winds: from the NW (320 degrees) at 6 MPH (5 knots; 2.6 m/s)
Visibility: 6 miles (10 km)
Ceiling: 800 feet AGL
Clouds: broken clouds at 800 feet AGL
overcast cloud deck at 1300 feet AGL
Weather: -RA BR  (light rain, mist)

METAR text: KJAN 232146Z 31006KT 10SM BKN009 OVC013 13/11 A2989 RMK AO2 CIG 006V012 T01280106
Conditions at: KJAN (JACKSON , MS, US) observed 2146 UTC 23 January 2020
Temperature: 12.8°C (55°F)
Dewpoint: 10.6°C (51°F) [RH = 86%]
Pressure (altimeter): 29.89 inches Hg (1012.3 mb)
Winds: from the NW (310 degrees) at 7 MPH (6 knots; 3.1 m/s)
Visibility: 10 or more miles (16+ km)
Ceiling: 900 feet AGL
Clouds: broken clouds at 900 feet AGL
overcast cloud deck at 1300 feet AGL
Weather: no significant weather observed at this time

METAR text: KJAN 232111Z 18009KT 10SM OVC014 14/11 A2988 RMK AO2 T01390106
Conditions at: KJAN (JACKSON , MS, US) observed 2111 UTC 23 January 2020
Temperature: 13.9°C (57°F)
Dewpoint: 10.6°C (51°F) [RH = 80%]
Pressure (altimeter): 29.88 inches Hg (1011.9 mb)
Winds: from the S (180 degrees) at 10 MPH (9 knots; 4.6 m/s)
Visibility: 10 or more miles (16+ km)
Ceiling: 1400 feet AGL
Clouds: overcast cloud deck at 1400 feet AGL
Weather: no significant weather observed at this time

METAR text: KJAN 232054Z 17010KT 10SM OVC016 14/11 A2988 RMK AO2 RAB03E53 SLP116 P0002 60002 T01390106 56025
Conditions at: KJAN (JACKSON , MS, US) observed 2054 UTC 23 January 2020
Temperature: 13.9°C (57°F)
Dewpoint: 10.6°C (51°F) [RH = 80%]
Pressure (altimeter): 29.88 inches Hg (1011.9 mb)
[Sea-level pressure: 1011.6 mb]
Winds: from the S (170 degrees) at 12 MPH (10 knots; 5.1 m/s)
Visibility: 10 or more miles (16+ km)
Ceiling: 1600 feet AGL
Clouds: overcast cloud deck at 1600 feet AGL
Weather: no significant weather observed at this time

METAR text: KJAN 231954Z 16014G20KT 10SM OVC015 13/09 A2988 RMK AO2 RAE1856 SLP119 P0000 T01330094
Conditions at: KJAN (JACKSON , MS, US) observed 1954 UTC 23 January 2020
Temperature: 13.3°C (56°F)
Dewpoint: 9.4°C (49°F) [RH = 77%]
Pressure (altimeter): 29.88 inches Hg (1011.9 mb)
[Sea-level pressure: 1011.9 mb]
Winds: from the SSE (160 degrees) at 16 MPH (14 knots; 7.2 m/s)
gusting to 23 MPH (20 knots; 10.3 m/s)
Visibility: 10 or more miles (16+ km)
Ceiling: 1500 feet AGL
Clouds: overcast cloud deck at 1500 feet AGL
Weather: no significant weather observed at this time

METAR text: KJAN 231854Z 15015KT 10SM -RA OVC016 12/09 A2992 RMK AO2 RAB41 SLP130 P0000 T01220089
Conditions at: KJAN (JACKSON , MS, US) observed 1854 UTC 23 January 2020
Temperature: 12.2°C (54°F)
Dewpoint: 8.9°C (48°F) [RH = 80%]
Pressure (altimeter): 29.92 inches Hg (1013.3 mb)
[Sea-level pressure: 1013.0 mb]
Winds: from the SSE (150 degrees) at 17 MPH (15 knots; 7.7 m/s)
Visibility: 10 or more miles (16+ km)
Ceiling: 1600 feet AGL
Clouds: overcast cloud deck at 1600 feet AGL
Weather: -RA  (light rain)

METAR text: KJAN 231754Z 15013G19KT 10SM OVC018 12/08 A2995 RMK AO2 RAB14E23 SLP142 P0000 60012 T01220078 10122 20050 58024
Conditions at: KJAN (JACKSON , MS, US) observed 1754 UTC 23 January 2020
Temperature: 12.2°C (54°F)
Dewpoint: 7.8°C (46°F) [RH = 74%]
Pressure (altimeter): 29.95 inches Hg (1014.3 mb)
[Sea-level pressure: 1014.2 mb]
Winds: from the SSE (150 degrees) at 15 MPH (13 knots; 6.7 m/s)
gusting to 22 MPH (19 knots; 9.8 m/s)
Visibility: 10 or more miles (16+ km)
Ceiling: 1800 feet AGL
Clouds: overcast cloud deck at 1800 feet AGL
Weather: no significant weather observed at this time

METAR text: KJAN 231745Z 15010KT 10SM BKN018 BKN100 12/07 A2996 RMK AO2 RAB14E23 P0000 T01220072
Conditions at: KJAN (JACKSON , MS, US) observed 1745 UTC 23 January 2020
Temperature: 12.2°C (54°F)
Dewpoint: 7.2°C (45°F) [RH = 71%]
Pressure (altimeter): 29.96 inches Hg (1014.6 mb)
Winds: from the SSE (150 degrees) at 12 MPH (10 knots; 5.1 m/s)
Visibility: 10 or more miles (16+ km)
Ceiling: 1800 feet AGL
Clouds: broken clouds at 1800 feet AGL
broken clouds at 10000 feet AGL
Weather: no significant weather observed at this time

METAR text: KJAN 231654Z 14014G24KT 10SM FEW035 BKN120 11/07 A2999 RMK AO2 RAB12E22 SLP154 P0000 T01060067
Conditions at: KJAN (JACKSON , MS, US) observed 1654 UTC 23 January 2020
Temperature: 10.6°C (51°F)
Dewpoint: 6.7°C (44°F) [RH = 77%]
Pressure (altimeter): 29.99 inches Hg (1015.7 mb)
[Sea-level pressure: 1015.4 mb]
Winds: from the SE (140 degrees) at 16 MPH (14 knots; 7.2 m/s)
gusting to 28 MPH (24 knots; 12.3 m/s)
Visibility: 10 or more miles (16+ km)
Ceiling: 12000 feet AGL
Clouds: few clouds at 3500 feet AGL
broken clouds at 12000 feet AGL
Weather: no significant weather observed at this time

METAR text: KJAN 231554Z 13010G19KT 10SM OVC032 07/04 A3001 RMK AO2 RAE50 SLP162 P0002 T00720044
Conditions at: KJAN (JACKSON , MS, US) observed 1554 UTC 23 January 2020
Temperature: 7.2°C (45°F)
Dewpoint: 4.4°C (40°F) [RH = 82%]
Pressure (altimeter): 30.01 inches Hg (1016.3 mb)
[Sea-level pressure: 1016.2 mb]
Winds: from the SE (130 degrees) at 12 MPH (10 knots; 5.1 m/s)
gusting to 22 MPH (19 knots; 9.8 m/s)
Visibility: 10 or more miles (16+ km)
Ceiling: 3200 feet AGL
Clouds: overcast cloud deck at 3200 feet AGL
Weather: no significant weather observed at this time

Forecast for: KJAN (JACKSON , MS, US)
Text: KJAN 242320Z 2500/2524 29006KT P6SM BKN035
Forecast period: 0000 to 0300 UTC 25 January 2020
Forecast type: FROM: standard forecast or significant change
Winds: from the WNW (290 degrees) at 7 MPH (6 knots; 3.1 m/s)
Visibility: 6 or more miles 10+ km)
Ceiling: 3500 feet AGL
Clouds: broken clouds at 3500 feet AGL
Weather: no significant weather forecast for this period
Text: FM250300 VRB03KT 6SM BR SKC
Forecast period: 0300 to 1400 UTC 25 January 2020
Forecast type: FROM: standard forecast or significant change
Winds: variable direction winds at 3 MPH (3 knots; 1.5 m/s)
Visibility: 6 miles (10 km)
Clouds: clear skies
Weather: BR  (mist)
Text: FM251400 VRB03KT P6SM SKC
Forecast period: 1400 UTC 25 January 2020 to 0000 UTC 26 January 2020
Forecast type: FROM: standard forecast or significant change
Winds: variable direction winds at 3 MPH (3 knots; 1.5 m/s)
Visibility: 6 or more miles 10+ km)
Clouds: clear skies
Weather: no significant weather forecast for this period